Detroit, Michigan
Traffic Map
Current Weather Conditions
Detroit, Michigan
Overcast
Overcast
30°
Feels Like: 21°
Wind Chill: 21° Ceiling: 2500
Heat Index: 30° Visibility: 12mi
Dew Point: 21° Wind: 10mph
Humidity: 69% Direction: 270° (W)
Pressure: 30.15in Gusts: 0mph
Raw Report DataCYQG 260000Z 27009KT 12SM OVC025 M01/M06 A3015 RMK SC8 SLP217
Traffic Incident Summary
Active as of:
Severity:
Category:
InformationThere was an issue retrieving the traffic information for this location. Please try a different location or try again shortly.
Advertisements
Track Severe Weather on mobile